createdAt,value
2023-08-09T00:01:57.881Z,99588.61
2023-08-09T00:04:24.365Z,99590.85
2023-08-09T00:06:51.069Z,99591.96
2023-08-09T00:09:17.815Z,99592.17
2023-08-09T00:11:44.329Z,99595.14
2023-08-09T00:14:11.005Z,99593.95
2023-08-09T00:16:37.510Z,99598.80
2023-08-09T00:19:04.325Z,99598.60
2023-08-09T00:21:32.132Z,99601.02
2023-08-09T00:23:59.234Z,99601.33
2023-08-09T00:26:26.306Z,99600.77
2023-08-09T00:28:53.348Z,99604.70
2023-08-09T00:31:20.148Z,99606.69
2023-08-09T00:33:46.740Z,99604.02
2023-08-09T00:36:13.325Z,99604.05
2023-08-09T00:38:40.313Z,99606.48
2023-08-09T00:41:07.004Z,99608.45
2023-08-09T00:43:33.553Z,99614.18
2023-08-09T00:46:00.261Z,99611.89
2023-08-09T00:48:26.968Z,99615.83
2023-08-09T00:50:53.950Z,99618.05
2023-08-09T00:53:21.746Z,99623.84
2023-08-09T00:55:48.258Z,99627.67
2023-08-09T00:58:16.761Z,99628.51
2023-08-09T01:00:43.427Z,99629.67
2023-08-09T01:03:10.190Z,99633.08
2023-08-09T01:05:46.973Z,99626.13
2023-08-09T01:08:18.615Z,99628.40
2023-08-09T01:11:09.917Z,99630.64
2023-08-09T01:13:37.807Z,99635.03
2023-08-09T01:16:06.040Z,99638.19
2023-08-09T01:18:32.738Z,99641.92
2023-08-09T01:21:01.101Z,99642.20
2023-08-09T01:23:37.249Z,99639.44
2023-08-09T01:26:07.526Z,99640.84
2023-08-09T01:28:34.040Z,99644.11
2023-08-09T01:31:00.817Z,99648.41
2023-08-09T01:33:27.684Z,99647.19
2023-08-09T01:35:56.182Z,99648.79
2023-08-09T01:38:24.922Z,99651.70
2023-08-09T01:40:51.388Z,99651.99
2023-08-09T01:43:17.886Z,99657.50
2023-08-09T01:45:44.501Z,99657.56
2023-08-09T01:48:12.734Z,99653.50
2023-08-09T01:50:41.207Z,99655.89
2023-08-09T01:53:07.770Z,99655.87
2023-08-09T01:55:34.486Z,99658.73
2023-08-09T01:58:01.052Z,99663.27
2023-08-09T02:00:28.357Z,99663.88
2023-08-09T02:02:55.541Z,99669.31
2023-08-09T02:05:22.983Z,99670.14
2023-08-09T02:07:50.921Z,99671.89
2023-08-09T02:10:17.604Z,99675.83
2023-08-09T02:12:47.996Z,99677.50
2023-08-09T02:15:19.844Z,99672.92
2023-08-09T02:17:46.772Z,99678.98
2023-08-09T02:20:13.547Z,99681.94
2023-08-09T02:22:40.277Z,99683.48
2023-08-09T02:25:07.936Z,99685.73
2023-08-09T02:27:34.967Z,99688.02
2023-08-09T02:30:03.991Z,99688.60
2023-08-09T02:32:37.273Z,99694.28
2023-08-09T02:35:04.806Z,99694.64
2023-08-09T02:37:31.666Z,99696.51
2023-08-09T02:39:58.926Z,99695.92
2023-08-09T02:42:25.608Z,99703.34
2023-08-09T02:44:52.225Z,99704.27
2023-08-09T02:47:18.907Z,99706.67
2023-08-09T02:49:45.488Z,99708.38
2023-08-09T02:52:11.981Z,99711.65
2023-08-09T02:54:39.718Z,99713.41
2023-08-09T02:57:07.641Z,99718.41
2023-08-09T02:59:35.218Z,99722.26
2023-08-09T03:02:01.906Z,99725.02
2023-08-09T03:04:28.663Z,99728.83
2023-08-09T03:06:55.250Z,99727.77
2023-08-09T03:09:21.890Z,99730.02
2023-08-09T03:11:48.780Z,99727.88
2023-08-09T03:14:15.528Z,99725.58
2023-08-09T03:16:42.114Z,99723.09
2023-08-09T03:19:09.182Z,99718.56
2023-08-09T03:21:36.940Z,99723.70
2023-08-09T03:24:04.840Z,99722.98
2023-08-09T03:26:31.510Z,99729.83
2023-08-09T03:28:59.711Z,99730.55
2023-08-09T03:31:26.628Z,99731.51
2023-08-09T03:33:53.967Z,99728.88
2023-08-09T03:36:20.844Z,99739.95
2023-08-09T03:38:48.745Z,99746.52
2023-08-09T03:41:15.644Z,99750.23
2023-08-09T03:43:42.270Z,99747.99
2023-08-09T03:46:08.952Z,99750.78
2023-08-09T03:48:35.693Z,99749.81
2023-08-09T03:51:02.458Z,99747.70
2023-08-09T03:53:29.036Z,99755.80
2023-08-09T03:55:55.787Z,99755.05
2023-08-09T03:58:22.339Z,99761.10
2023-08-09T04:00:49.160Z,99760.04
2023-08-09T04:03:17.758Z,99762.35
2023-08-09T04:05:44.943Z,99758.87
2023-08-09T04:08:11.465Z,99758.48
2023-08-09T04:10:38.670Z,99761.33
2023-08-09T04:13:05.211Z,99764.16
2023-08-09T04:15:31.791Z,99765.41
2023-08-09T04:17:59.542Z,99766.34
2023-08-09T04:20:28.291Z,99769.63
2023-08-09T04:22:56.726Z,99770.55
2023-08-09T04:25:23.293Z,99772.95
2023-08-09T04:27:49.995Z,99773.55
2023-08-09T04:30:20.789Z,99775.85
2023-08-09T04:32:47.312Z,99776.68
2023-08-09T04:35:14.138Z,99775.05
2023-08-09T04:37:41.090Z,99775.42
2023-08-09T04:40:11.489Z,99779.20
2023-08-09T04:42:41.956Z,99779.16
2023-08-09T04:45:12.818Z,99777.77
2023-08-09T04:47:39.866Z,99781.77
2023-08-09T04:50:07.953Z,99787.43
2023-08-09T04:52:35.402Z,99788.75
2023-08-09T04:55:03.472Z,99791.49
2023-08-09T04:57:35.243Z,99788.77
2023-08-09T05:00:08.918Z,99786.77
2023-08-09T05:02:37.424Z,99793.91
2023-08-09T05:05:05.197Z,99796.70
2023-08-09T05:07:31.930Z,99795.44
2023-08-09T05:10:00.001Z,99787.43
2023-08-09T05:12:26.678Z,99786.16
2023-08-09T05:14:53.271Z,99781.04
2023-08-09T05:17:19.881Z,99782.70
2023-08-09T05:19:46.537Z,99780.42
2023-08-09T05:22:13.063Z,99787.09
2023-08-09T05:24:40.528Z,99788.33
2023-08-09T05:27:07.409Z,99788.27
2023-08-09T05:29:34.172Z,99791.13
2023-08-09T05:32:00.948Z,99792.19
2023-08-09T05:34:27.683Z,99791.36
2023-08-09T05:36:54.331Z,99789.54
2023-08-09T05:39:21.082Z,99794.05
2023-08-09T05:41:47.673Z,99789.73
2023-08-09T05:44:14.326Z,99793.19
2023-08-09T05:46:41.082Z,99798.86
2023-08-09T05:49:07.659Z,99803.58
2023-08-09T05:51:34.107Z,99806.41
2023-08-09T05:54:00.857Z,99809.55
2023-08-09T05:56:27.422Z,99812.96
2023-08-09T05:58:53.923Z,99814.97
2023-08-09T06:01:21.726Z,99816.15
2023-08-09T06:03:48.444Z,99814.95
2023-08-09T06:06:15.067Z,99819.73
2023-08-09T06:08:41.601Z,99816.08
2023-08-09T06:11:08.247Z,99814.46
2023-08-09T06:13:35.349Z,99812.35
2023-08-09T06:16:01.986Z,99813.84
2023-08-09T06:18:29.000Z,99815.23
2023-08-09T06:20:55.846Z,99815.68
2023-08-09T06:23:22.590Z,99815.68
2023-08-09T06:25:50.396Z,99816.46
2023-08-09T06:28:17.836Z,99821.88
2023-08-09T06:30:44.692Z,99825.30
2023-08-09T06:33:11.462Z,99823.35
2023-08-09T06:35:38.000Z,99824.11
2023-08-09T06:38:14.588Z,99823.20
2023-08-09T06:40:42.722Z,99822.59
2023-08-09T06:43:09.513Z,99822.15
2023-08-09T06:45:38.748Z,99821.61
2023-08-09T06:48:06.044Z,99820.93
2023-08-09T06:50:33.151Z,99823.77
2023-08-09T06:52:59.710Z,99825.16
2023-08-09T06:55:26.480Z,99824.98
2023-08-09T06:57:53.140Z,99824.02
2023-08-09T07:00:19.850Z,99822.14
2023-08-09T07:02:49.067Z,99826.05
2023-08-09T07:05:19.440Z,99823.83
2023-08-09T07:07:46.389Z,99821.56
2023-08-09T07:10:13.275Z,99825.55
2023-08-09T07:12:40.301Z,99823.91
2023-08-09T07:15:09.334Z,99823.59
2023-08-09T07:17:36.433Z,99822.52
2023-08-09T07:20:07.679Z,99822.32
2023-08-09T07:22:36.269Z,99826.80
2023-08-09T07:25:02.929Z,99825.16
2023-08-09T07:27:29.837Z,99828.30
2023-08-09T07:29:56.404Z,99829.28
2023-08-09T07:32:23.174Z,99832.17
2023-08-09T07:34:50.058Z,99830.19
2023-08-09T07:37:16.785Z,99829.88
2023-08-09T07:39:46.510Z,99830.90
2023-08-09T07:42:13.190Z,99832.04
2023-08-09T07:44:40.041Z,99837.05
2023-08-09T07:47:06.727Z,99841.38
2023-08-09T07:49:33.330Z,99842.77
2023-08-09T07:51:59.976Z,99838.25
2023-08-09T07:54:27.020Z,99836.52
2023-08-09T07:56:56.849Z,99836.45
2023-08-09T07:59:23.456Z,99835.95
2023-08-09T08:01:50.048Z,99834.47
2023-08-09T08:04:16.677Z,99835.95
2023-08-09T08:06:43.407Z,99832.46
2023-08-09T08:09:13.220Z,99834.32
2023-08-09T08:11:40.755Z,99836.90
2023-08-09T08:14:08.586Z,99830.41
2023-08-09T08:16:35.212Z,99830.73
2023-08-09T08:19:02.379Z,99837.31
2023-08-09T08:21:29.365Z,99837.02
2023-08-09T08:23:57.188Z,99835.85
2023-08-09T08:26:25.671Z,99833.95
2023-08-09T08:28:52.322Z,99838.35
2023-08-09T08:31:22.975Z,99847.52
2023-08-09T08:33:53.059Z,99849.05
2023-08-09T08:36:29.966Z,99849.44
2023-08-09T08:38:58.189Z,99849.91
2023-08-09T08:41:24.869Z,99849.23
2023-08-09T08:43:51.814Z,99846.07
2023-08-09T08:46:18.421Z,99840.48
2023-08-09T08:48:47.425Z,99853.52
2023-08-09T08:51:14.132Z,99855.09
2023-08-09T08:53:41.640Z,99854.59
2023-08-09T08:56:08.309Z,99855.41
2023-08-09T08:58:34.965Z,99852.16
2023-08-09T09:01:01.549Z,99846.35
2023-08-09T09:03:28.353Z,99847.44
2023-08-09T09:05:55.066Z,99851.53
2023-08-09T09:08:23.638Z,99852.62
2023-08-09T09:10:54.567Z,99849.81
2023-08-09T09:13:27.999Z,99850.48
2023-08-09T09:15:54.933Z,99857.10
2023-08-09T09:18:22.209Z,99854.48
2023-08-09T09:20:49.316Z,99851.17
2023-08-09T09:23:29.081Z,99856.81
2023-08-09T09:26:07.194Z,99849.39
2023-08-09T09:28:42.031Z,99844.48
2023-08-09T09:31:13.085Z,99848.66
2023-08-09T09:33:46.660Z,99844.39
2023-08-09T09:36:14.426Z,99847.41
2023-08-09T09:38:42.239Z,99850.66
2023-08-09T09:41:10.488Z,99850.22
2023-08-09T09:43:42.131Z,99847.80
2023-08-09T09:46:35.402Z,99849.69
2023-08-09T09:49:05.943Z,99842.77
2023-08-09T09:51:33.995Z,99842.88
2023-08-09T09:54:00.562Z,99837.36
2023-08-09T09:56:27.449Z,99845.54
2023-08-09T09:58:54.370Z,99843.98
2023-08-09T10:01:23.414Z,99838.96
2023-08-09T10:03:53.886Z,99838.48
2023-08-09T10:06:27.382Z,99844.33
2023-08-09T10:08:54.216Z,99843.69
2023-08-09T10:11:20.996Z,99842.36
2023-08-09T10:13:47.710Z,99841.77
2023-08-09T10:16:14.369Z,99840.77
2023-08-09T10:18:43.440Z,99839.84
2023-08-09T10:21:11.566Z,99833.81
2023-08-09T10:23:38.316Z,99830.73
2023-08-09T10:26:04.865Z,99832.23
2023-08-09T10:28:47.793Z,99826.58
2023-08-09T10:32:05.761Z,99835.39
2023-08-09T10:34:44.359Z,99833.02
2023-08-09T10:37:12.713Z,99832.16
2023-08-09T10:39:40.477Z,99834.60
2023-08-09T10:42:08.970Z,99829.23
2023-08-09T10:44:36.845Z,99824.70
2023-08-09T10:47:04.991Z,99826.00
2023-08-09T10:49:44.145Z,99824.23
2023-08-09T10:52:20.140Z,99820.51
2023-08-09T10:55:10.505Z,99822.44
2023-08-09T10:57:43.923Z,99825.08
2023-08-09T11:00:14.821Z,99826.03
2023-08-09T11:02:48.959Z,99821.50
2023-08-09T11:05:16.235Z,99820.90
2023-08-09T11:07:54.529Z,99818.33
2023-08-09T11:10:34.379Z,99815.34
2023-08-09T11:13:09.131Z,99819.78
2023-08-09T11:15:36.758Z,99821.70
2023-08-09T11:18:03.634Z,99820.87
2023-08-09T11:20:30.407Z,99823.84
2023-08-09T11:22:58.564Z,99819.36
2023-08-09T11:25:26.093Z,99813.23
2023-08-09T11:27:53.622Z,99813.77
2023-08-09T11:30:20.882Z,99811.29
2023-08-09T11:33:01.208Z,99815.45
2023-08-09T11:35:31.893Z,99820.91
2023-08-09T11:37:58.935Z,99820.27
2023-08-09T11:40:26.287Z,99816.98
2023-08-09T11:42:59.588Z,99812.59
2023-08-09T11:45:26.350Z,99814.31
2023-08-09T11:47:53.665Z,99822.01
2023-08-09T11:50:22.568Z,99820.45
2023-08-09T11:52:54.002Z,99816.48
2023-08-09T11:55:21.977Z,99816.56
2023-08-09T11:57:48.676Z,99824.58
2023-08-09T12:00:17.226Z,99815.16
2023-08-09T12:02:44.962Z,99813.91
2023-08-09T12:05:13.270Z,99814.70
2023-08-09T12:07:39.773Z,99814.00
2023-08-09T12:10:10.778Z,99808.52
2023-08-09T12:12:38.934Z,99810.97
2023-08-09T12:15:07.799Z,99814.37
2023-08-09T12:17:38.008Z,99812.33
2023-08-09T12:20:07.294Z,99817.06
2023-08-09T12:22:34.035Z,99815.89
2023-08-09T12:25:04.502Z,99817.81
2023-08-09T12:27:32.302Z,99814.79
2023-08-09T12:29:58.944Z,99820.30
2023-08-09T12:32:25.748Z,99822.55
2023-08-09T12:34:56.279Z,99817.47
2023-08-09T12:37:23.008Z,99817.63
2023-08-09T12:39:49.521Z,99816.92
2023-08-09T12:42:16.106Z,99818.02
2023-08-09T12:44:43.601Z,99815.19
2023-08-09T12:47:12.884Z,99819.62
2023-08-09T12:49:41.294Z,99815.89
2023-08-09T12:52:08.193Z,99815.34
2023-08-09T12:54:34.814Z,99818.18
2023-08-09T12:57:01.689Z,99819.65
2023-08-09T12:59:28.749Z,99821.05
2023-08-09T13:01:55.571Z,99822.69
2023-08-09T13:04:24.556Z,99822.21
2023-08-09T13:06:52.205Z,99821.79
2023-08-09T13:09:18.961Z,99818.91
2023-08-09T13:11:46.817Z,99815.11
2023-08-09T13:14:13.545Z,99818.41
2023-08-09T13:16:40.438Z,99816.43
2023-08-09T13:19:07.183Z,99816.21
2023-08-09T13:21:33.833Z,99818.11
2023-08-09T13:24:03.948Z,99822.31
2023-08-09T13:26:31.043Z,99824.13
2023-08-09T13:28:57.936Z,99823.02
2023-08-09T13:31:24.927Z,99826.19
2023-08-09T13:33:51.764Z,99821.36
2023-08-09T13:36:18.445Z,99823.11
2023-08-09T13:38:45.041Z,99827.31
2023-08-09T13:41:11.667Z,99821.90
2023-08-09T13:43:38.216Z,99827.39
2023-08-09T13:46:05.917Z,99818.48
2023-08-09T13:48:37.217Z,99821.20
2023-08-09T13:51:09.420Z,99827.35
2023-08-09T13:53:36.127Z,99827.52
2023-08-09T13:56:03.517Z,99830.73
2023-08-09T13:58:30.631Z,99830.02
2023-08-09T14:00:57.899Z,99838.52
2023-08-09T14:03:27.200Z,99835.68
2023-08-09T14:05:57.927Z,99836.70
2023-08-09T14:08:24.824Z,99839.69
2023-08-09T14:10:51.470Z,99833.71
2023-08-09T14:13:55.355Z,99838.33
2023-08-09T14:16:30.241Z,99832.52
2023-08-09T14:19:00.010Z,99829.10
2023-08-09T14:21:26.634Z,99834.02
2023-08-09T14:23:53.228Z,99835.34
2023-08-09T14:26:22.894Z,99828.97
2023-08-09T14:28:49.371Z,99831.23
2023-08-09T14:31:15.979Z,99831.30
2023-08-09T14:33:42.497Z,99831.38
2023-08-09T14:36:09.043Z,99828.85
2023-08-09T14:38:35.728Z,99838.03
2023-08-09T14:41:06.830Z,99835.55
2023-08-09T14:43:34.530Z,99843.80
2023-08-09T14:46:01.158Z,99842.98
2023-08-09T14:48:28.464Z,99846.77
2023-08-09T14:50:55.069Z,99839.56
2023-08-09T14:53:21.594Z,99837.77
2023-08-09T14:55:48.573Z,99834.84
2023-08-09T14:58:16.571Z,99831.12
2023-08-09T15:00:43.394Z,99833.46
2023-08-09T15:03:10.683Z,99833.64
2023-08-09T15:05:37.303Z,99834.95
2023-08-09T15:08:04.310Z,99833.30
2023-08-09T15:10:33.863Z,99837.79
2023-08-09T15:13:02.310Z,99835.98
2023-08-09T15:15:29.744Z,99836.00
2023-08-09T15:17:57.592Z,99835.67
2023-08-09T15:20:26.344Z,99835.34
2023-08-09T15:22:53.770Z,99836.44
2023-08-09T15:25:22.044Z,99835.67
2023-08-09T15:27:50.328Z,99844.46
2023-08-09T15:30:19.443Z,99845.92
2023-08-09T15:32:47.809Z,99843.83
2023-08-09T15:35:14.791Z,99841.50
2023-08-09T15:37:42.459Z,99848.35
2023-08-09T15:40:09.718Z,99848.12
2023-08-09T15:42:36.636Z,99845.38
2023-08-09T15:45:04.395Z,99848.59
2023-08-09T15:47:33.466Z,99844.77
2023-08-09T15:50:00.243Z,99847.14
2023-08-09T15:52:26.827Z,99844.42
2023-08-09T15:54:53.383Z,99848.85
2023-08-09T15:57:19.944Z,99848.55
2023-08-09T15:59:46.648Z,99849.52
2023-08-09T16:05:06.061Z,99849.92
2023-08-09T16:07:33.280Z,99851.85
2023-08-09T16:10:00.140Z,99852.91
2023-08-09T16:12:26.825Z,99853.48
2023-08-09T16:14:53.669Z,99848.63
2023-08-09T16:17:20.471Z,99851.66
2023-08-09T16:19:47.118Z,99850.52
2023-08-09T16:22:13.602Z,99850.97
2023-08-09T16:24:40.264Z,99854.99
2023-08-09T16:27:07.204Z,99857.83
2023-08-09T16:29:34.041Z,99862.98
2023-08-09T16:32:00.720Z,99860.33
2023-08-09T16:34:27.726Z,99861.45
2023-08-09T16:36:54.218Z,99859.61
2023-08-09T16:39:20.853Z,99862.95
2023-08-09T16:41:47.765Z,99867.56
2023-08-09T16:44:14.881Z,99865.77
2023-08-09T16:46:43.558Z,99872.48
2023-08-09T16:49:10.573Z,99870.05
2023-08-09T16:51:37.203Z,99873.25
2023-08-09T16:54:06.489Z,99871.99
2023-08-09T16:56:34.024Z,99870.64
2023-08-09T16:59:01.855Z,99871.52
2023-08-09T17:01:28.672Z,99869.28
2023-08-09T17:03:55.306Z,99868.54
2023-08-09T17:06:22.858Z,99872.08
2023-08-09T17:08:49.534Z,99872.16
2023-08-09T17:11:16.055Z,99869.56
2023-08-09T17:13:42.570Z,99869.85
2023-08-09T17:16:09.156Z,99874.42
2023-08-09T17:18:35.814Z,99879.46
2023-08-09T17:21:04.185Z,99881.98
2023-08-09T17:23:30.903Z,99884.36
2023-08-09T17:25:57.417Z,99886.98
2023-08-09T17:28:24.141Z,99889.06
2023-08-09T17:30:51.013Z,99890.38
2023-08-09T17:33:17.669Z,99896.06
2023-08-09T17:35:45.390Z,99898.83
2023-08-09T17:38:11.940Z,99898.23
2023-08-09T17:40:38.836Z,99896.30
2023-08-09T17:43:05.356Z,99897.21
2023-08-09T17:45:31.994Z,99905.96
2023-08-09T17:47:58.770Z,99909.66
2023-08-09T17:50:25.621Z,99911.05
2023-08-09T17:52:52.148Z,99911.34
2023-08-09T17:55:18.696Z,99914.17
2023-08-09T17:57:45.438Z,99912.48
2023-08-09T18:00:20.590Z,99910.20
2023-08-09T18:02:48.054Z,99915.16
2023-08-09T18:05:14.818Z,99916.78
2023-08-09T18:07:42.389Z,99919.19
2023-08-09T18:10:11.357Z,99916.84
2023-08-09T18:12:38.910Z,99917.88
2023-08-09T18:15:05.965Z,99919.33
2023-08-09T18:17:35.993Z,99920.21
2023-08-09T18:20:09.082Z,99919.56
2023-08-09T18:22:35.662Z,99923.85
2023-08-09T18:25:05.080Z,99919.07
2023-08-09T18:27:33.165Z,99919.66
2023-08-09T18:29:59.779Z,99924.87
2023-08-09T18:32:30.208Z,99926.58
2023-08-09T18:35:11.063Z,99931.45
2023-08-09T18:37:43.342Z,99930.31
2023-08-09T18:40:10.536Z,99927.31
2023-08-09T18:42:38.938Z,99929.96
2023-08-09T18:45:07.431Z,99929.55
2023-08-09T18:47:34.140Z,99931.26
2023-08-09T18:50:04.093Z,99927.81
2023-08-09T18:52:31.112Z,99931.24
2023-08-09T18:54:57.982Z,99930.55
2023-08-09T18:57:24.860Z,99934.21
2023-08-09T18:59:52.907Z,99934.89
2023-08-09T19:02:19.775Z,99932.30
2023-08-09T19:04:46.535Z,99932.17
2023-08-09T19:07:13.217Z,99933.37
2023-08-09T19:09:39.865Z,99932.22
2023-08-09T19:12:06.689Z,99936.92
2023-08-09T19:14:33.357Z,99938.34
2023-08-09T19:16:59.840Z,99942.71
2023-08-09T19:19:26.431Z,99948.56
2023-08-09T19:21:53.397Z,99944.14
2023-08-09T19:24:20.066Z,99946.05
2023-08-09T19:26:46.872Z,99946.58
2023-08-09T19:29:13.681Z,99947.62
2023-08-09T19:31:40.802Z,99950.61
2023-08-09T19:34:07.941Z,99950.34
2023-08-09T19:36:34.711Z,99951.21
2023-08-09T19:39:01.504Z,99958.23
2023-08-09T19:41:28.626Z,99958.15
2023-08-09T19:43:56.778Z,99964.34
2023-08-09T19:46:24.675Z,99966.94
2023-08-09T19:48:52.204Z,99966.85
2023-08-09T19:51:21.903Z,99970.00
2023-08-09T19:53:48.698Z,99965.76
2023-08-09T19:56:15.597Z,99967.77
2023-08-09T19:58:42.225Z,99965.38
2023-08-09T20:01:22.663Z,99964.67
2023-08-09T20:03:49.412Z,99964.96
2023-08-09T20:06:20.620Z,99969.98
2023-08-09T20:08:47.325Z,99967.30
2023-08-09T20:11:14.225Z,99966.73
2023-08-09T20:13:41.013Z,99968.31
2023-08-09T20:16:11.175Z,99972.83
2023-08-09T20:18:37.895Z,99975.96
2023-08-09T20:21:07.005Z,99978.34
2023-08-09T20:23:33.748Z,99976.44
2023-08-09T20:26:01.242Z,99977.83
2023-08-09T20:28:28.958Z,99977.58
2023-08-09T20:30:55.608Z,99978.21
2023-08-09T20:33:22.317Z,99980.02
2023-08-09T20:35:49.570Z,99977.00
2023-08-09T20:38:16.190Z,99979.83
2023-08-09T20:40:42.811Z,99978.05
2023-08-09T20:43:09.266Z,99975.46
2023-08-09T20:45:36.006Z,99978.76
2023-08-09T20:48:06.224Z,99976.75
2023-08-09T20:50:32.913Z,99971.88
2023-08-09T20:52:59.530Z,99974.07
2023-08-09T20:55:26.137Z,99975.13
2023-08-09T20:57:52.647Z,99973.25
2023-08-09T21:00:19.575Z,99977.52
2023-08-09T21:02:46.206Z,99976.60
2023-08-09T21:05:12.932Z,99976.86
2023-08-09T21:07:40.244Z,99980.85
2023-08-09T21:10:07.472Z,99979.20
2023-08-09T21:12:38.135Z,99980.21
2023-08-09T21:15:06.057Z,99984.88
2023-08-09T21:17:34.692Z,99979.05
2023-08-09T21:20:01.519Z,99983.28
2023-08-09T21:22:28.237Z,99983.66
2023-08-09T21:27:24.916Z,99986.67
2023-08-09T21:29:51.587Z,99989.91
2023-08-09T21:32:18.181Z,99987.25
2023-08-09T21:34:44.697Z,99984.25
2023-08-09T21:37:11.313Z,99988.92
2023-08-09T21:39:37.923Z,99991.29
2023-08-09T21:42:04.807Z,99991.99
2023-08-09T21:44:31.884Z,99994.34
2023-08-09T21:46:58.509Z,99996.10
2023-08-09T21:49:25.181Z,99993.65
2023-08-09T21:51:52.227Z,99997.56
2023-08-09T21:54:18.939Z,99999.75
2023-08-09T21:56:45.719Z,99998.57
2023-08-09T21:59:12.209Z,99997.92
2023-08-09T22:01:39.668Z,100000.81
2023-08-09T22:04:06.586Z,100003.02
2023-08-09T22:06:33.174Z,99999.99
2023-08-09T22:08:59.904Z,100001.64
2023-08-09T22:11:26.663Z,100003.39
2023-08-09T22:13:53.670Z,100002.98
2023-08-09T22:16:20.638Z,100004.39
2023-08-09T22:18:47.410Z,100006.93
2023-08-09T22:21:13.963Z,100006.11
2023-08-09T22:23:40.855Z,100006.82
2023-08-09T22:26:07.397Z,100003.55
2023-08-09T22:28:34.097Z,100009.20
2023-08-09T22:31:00.720Z,100010.98
2023-08-09T22:33:27.340Z,100009.85
2023-08-09T22:35:54.057Z,100014.52
2023-08-09T22:38:21.185Z,100013.39
2023-08-09T22:40:47.812Z,100015.84
2023-08-09T22:43:14.627Z,100017.36
2023-08-09T22:45:41.563Z,100016.98
2023-08-09T22:48:08.443Z,100016.39
2023-08-09T22:50:35.520Z,100017.92
2023-08-09T22:53:02.438Z,100018.30
2023-08-09T22:55:29.298Z,100017.42
2023-08-09T22:57:56.044Z,100017.63
2023-08-09T23:00:26.199Z,100016.35
2023-08-09T23:02:52.923Z,100012.54
2023-08-09T23:05:20.466Z,100011.98
2023-08-09T23:07:47.028Z,100015.98
2023-08-09T23:10:13.747Z,100016.70
2023-08-09T23:12:40.364Z,100019.22
2023-08-09T23:15:08.150Z,100020.00
2023-08-09T23:17:34.906Z,100020.36
2023-08-09T23:20:01.491Z,100019.52
2023-08-09T23:22:28.303Z,100020.88
2023-08-09T23:24:55.268Z,100023.13
2023-08-09T23:27:23.590Z,100026.58
2023-08-09T23:29:50.165Z,100027.77
2023-08-09T23:32:17.096Z,100027.32
2023-08-09T23:34:43.757Z,100027.29
2023-08-09T23:37:11.063Z,100026.74
2023-08-09T23:39:37.666Z,100029.66
2023-08-09T23:42:06.930Z,100028.79
2023-08-09T23:44:35.694Z,100026.31
2023-08-09T23:47:02.648Z,100026.20
2023-08-09T23:49:29.502Z,100027.58
2023-08-09T23:51:56.043Z,100034.27
2023-08-09T23:54:22.577Z,100032.43
2023-08-09T23:56:49.173Z,100037.45
2023-08-09T23:59:15.938Z,100036.40
